Terminal Aerodrome Forecast
Issued by NWS Twin Cities, MN

Home | Current Version | Previous Version | Graphics & Text | Print | Product List | Glossary On
Versions: 1 2 3 4 5 6 7 8 9 10 11 12 13 14 15 16 17 18 19
000
FTUS43 KMPX 261700
TAFSTC
TAF
KSTC 261723Z 2618/2718 01011KT P6SM SCT015 BKN025
     FM261900 36011G17KT P6SM BKN018 BKN025
     FM262200 34010KT P6SM SCT025 BKN050
     FM270100 33007KT P6SM SCT050
     FM270400 33004KT P6SM SKC
     FM271600 VRB02KT P6SM SCT200=

USA.gov is the U.S. government's official web portal to all federal, state and local government web resources and services.